createdAt,value
2023-02-22T00:00:46.566Z,982.17
2023-02-22T00:01:46.659Z,982.15
2023-02-22T00:02:46.604Z,982.13
2023-02-22T00:03:46.572Z,982.11
2023-02-22T00:04:46.513Z,982.09
2023-02-22T00:05:46.554Z,982.10
2023-02-22T00:06:46.496Z,982.09
2023-02-22T00:07:46.503Z,982.10
2023-02-22T00:08:46.466Z,982.07
2023-02-22T00:09:46.513Z,982.04
2023-02-22T00:10:46.456Z,982.05
2023-02-22T00:11:46.469Z,982.04
2023-02-22T00:12:46.480Z,982.05
2023-02-22T00:13:46.440Z,982.00
2023-02-22T00:14:46.406Z,981.98
2023-02-22T00:15:46.438Z,982.01
2023-02-22T00:16:46.396Z,981.98
2023-02-22T00:17:46.413Z,981.99
2023-02-22T00:18:46.353Z,981.92
2023-02-22T00:19:46.577Z,981.91
2023-02-22T00:20:46.345Z,981.93
2023-02-22T00:21:46.355Z,981.92
2023-02-22T00:22:46.349Z,981.89
2023-02-22T00:23:46.353Z,981.87
2023-02-22T00:24:46.314Z,981.85
2023-02-22T00:25:46.314Z,981.87
2023-02-22T00:26:46.287Z,981.90
2023-02-22T00:27:46.286Z,981.88
2023-02-22T00:28:46.251Z,981.86
2023-02-22T00:29:46.274Z,981.90
2023-02-22T00:30:46.238Z,981.92
2023-02-22T00:31:46.279Z,981.91
2023-02-22T00:32:46.369Z,981.92
2023-02-22T00:33:46.240Z,981.88
2023-02-22T00:34:46.225Z,981.85
2023-02-22T00:35:46.189Z,981.88
2023-02-22T00:36:46.187Z,981.85
2023-02-22T00:37:46.169Z,981.88
2023-02-22T00:38:46.130Z,981.85
2023-02-22T00:39:46.508Z,981.88
2023-02-22T00:40:46.118Z,981.86
2023-02-22T00:41:46.264Z,981.92
2023-02-22T00:42:46.092Z,981.88
2023-02-22T00:43:46.122Z,981.87
2023-02-22T00:44:46.059Z,981.86
2023-02-22T00:45:46.093Z,981.88
2023-02-22T00:46:46.056Z,981.86
2023-02-22T00:47:46.066Z,981.90
2023-02-22T00:48:46.076Z,981.89
2023-02-22T00:49:46.070Z,981.88
2023-02-22T00:50:46.009Z,981.87
2023-02-22T00:51:46.012Z,981.89
2023-02-22T00:52:45.987Z,981.90
2023-02-22T00:53:45.986Z,981.87
2023-02-22T00:54:45.956Z,981.92
2023-02-22T00:55:45.984Z,981.87
2023-02-22T00:56:45.937Z,981.84
2023-02-22T00:57:45.946Z,981.84
2023-02-22T00:58:45.911Z,981.89
2023-02-22T00:59:45.941Z,981.85
2023-02-22T01:00:45.920Z,981.86
2023-02-22T01:01:46.016Z,981.84
2023-02-22T01:02:45.867Z,981.82
2023-02-22T01:03:45.890Z,981.80
2023-02-22T01:04:45.853Z,981.80
2023-02-22T01:05:45.880Z,981.78
2023-02-22T01:06:45.837Z,981.79
2023-02-22T01:07:45.828Z,981.76
2023-02-22T01:08:45.826Z,981.76
2023-02-22T01:09:45.812Z,981.73
2023-02-22T01:10:45.786Z,981.77
2023-02-22T01:11:45.802Z,981.72
2023-02-22T01:12:45.763Z,981.69
2023-02-22T01:13:45.764Z,981.68
2023-02-22T01:14:45.741Z,981.74
2023-02-22T01:15:45.755Z,981.63
2023-02-22T01:16:45.731Z,981.66
2023-02-22T01:17:45.735Z,981.62
2023-02-22T01:18:45.696Z,981.64
2023-02-22T01:19:45.719Z,981.61
2023-02-22T01:20:45.663Z,981.64
2023-02-22T01:21:45.704Z,981.61
2023-02-22T01:22:45.667Z,981.63
2023-02-22T01:23:45.661Z,981.63
2023-02-22T01:24:45.657Z,981.59
2023-02-22T01:25:45.699Z,981.59
2023-02-22T01:26:45.623Z,981.56
2023-02-22T01:27:45.643Z,981.58
2023-02-22T01:28:45.592Z,981.57
2023-02-22T01:29:45.602Z,981.54
2023-02-22T01:30:45.680Z,981.53
2023-02-22T01:31:45.619Z,981.50
2023-02-22T01:32:45.591Z,981.51
2023-02-22T01:33:45.558Z,981.50
2023-02-22T01:34:45.524Z,981.50
2023-02-22T01:35:45.568Z,981.45
2023-02-22T01:36:45.558Z,981.45
2023-02-22T01:37:46.069Z,981.47
2023-02-22T01:38:45.499Z,981.43
2023-02-22T01:39:45.515Z,981.40
2023-02-22T01:40:45.579Z,981.39
2023-02-22T01:41:45.583Z,981.37
2023-02-22T01:42:45.486Z,981.36
2023-02-22T01:43:45.710Z,981.39
2023-02-22T01:44:45.407Z,981.35
2023-02-22T01:45:45.486Z,981.34
2023-02-22T01:46:45.450Z,981.36
2023-02-22T01:47:45.399Z,981.33
2023-02-22T01:48:45.382Z,981.34
2023-02-22T01:49:45.387Z,981.35
2023-02-22T01:50:45.348Z,981.35
2023-02-22T01:51:45.378Z,981.35
2023-02-22T01:52:45.333Z,981.35
2023-02-22T01:53:45.357Z,981.34
2023-02-22T01:54:45.284Z,981.35
2023-02-22T01:55:45.307Z,981.33
2023-02-22T01:56:45.307Z,981.30
2023-02-22T01:57:45.273Z,981.30
2023-02-22T01:58:45.273Z,981.32
2023-02-22T01:59:45.274Z,981.29
2023-02-22T02:00:45.255Z,981.32
2023-02-22T02:01:45.806Z,981.30
2023-02-22T02:02:45.226Z,981.30
2023-02-22T02:03:45.232Z,981.29
2023-02-22T02:04:45.243Z,981.27
2023-02-22T02:05:45.182Z,981.27
2023-02-22T02:06:45.187Z,981.26
2023-02-22T02:07:45.164Z,981.25
2023-02-22T02:08:45.174Z,981.23
2023-02-22T02:09:45.136Z,981.24
2023-02-22T02:10:45.158Z,981.25
2023-02-22T02:11:45.100Z,981.23
2023-02-22T02:12:45.113Z,981.22
2023-02-22T02:13:45.094Z,981.23
2023-02-22T02:14:45.120Z,981.20
2023-02-22T02:15:45.064Z,981.20
2023-02-22T02:16:45.116Z,981.19
2023-02-22T02:17:45.044Z,981.16
2023-02-22T02:18:45.058Z,981.17
2023-02-22T02:19:45.048Z,981.14
2023-02-22T02:20:45.033Z,981.16
2023-02-22T02:21:45.009Z,981.13
2023-02-22T02:22:45.069Z,981.18
2023-02-22T02:23:44.973Z,981.09
2023-02-22T02:24:45.018Z,981.12
2023-02-22T02:25:44.982Z,981.11
2023-02-22T02:26:45.012Z,981.12
2023-02-22T02:27:44.953Z,981.12
2023-02-22T02:28:44.957Z,981.13
2023-02-22T02:29:44.926Z,981.08
2023-02-22T02:30:44.958Z,981.06
2023-02-22T02:31:44.994Z,981.05
2023-02-22T02:32:44.943Z,981.07
2023-02-22T02:33:44.880Z,981.07
2023-02-22T02:34:45.552Z,981.06
2023-02-22T02:35:44.847Z,981.07
2023-02-22T02:36:44.866Z,981.07
2023-02-22T02:37:44.853Z,981.03
2023-02-22T02:38:44.874Z,981.06
2023-02-22T02:39:44.836Z,981.00
2023-02-22T02:40:44.882Z,981.02
2023-02-22T02:41:44.825Z,981.03
2023-02-22T02:42:44.814Z,980.97
2023-02-22T02:43:44.772Z,981.00
2023-02-22T02:44:44.808Z,980.98
2023-02-22T02:45:44.750Z,980.96
2023-02-22T02:46:44.771Z,981.02
2023-02-22T02:47:44.725Z,980.93
2023-02-22T02:48:44.744Z,980.96
2023-02-22T02:49:44.721Z,980.94
2023-02-22T02:50:44.722Z,980.96
2023-02-22T02:51:44.698Z,980.97
2023-02-22T02:52:44.707Z,980.96
2023-02-22T02:53:44.663Z,980.96
2023-02-22T02:54:44.670Z,980.94
2023-02-22T02:55:44.697Z,980.95
2023-02-22T02:56:44.670Z,980.95
2023-02-22T02:57:44.629Z,980.96
2023-02-22T02:58:44.630Z,980.94
2023-02-22T02:59:44.595Z,980.89
2023-02-22T03:00:44.604Z,980.91
2023-02-22T03:01:44.695Z,980.92
2023-02-22T03:02:44.612Z,980.90
2023-02-22T03:03:44.710Z,980.87
2023-02-22T03:04:44.565Z,980.91
2023-02-22T03:05:44.528Z,980.88
2023-02-22T03:06:44.553Z,980.87
2023-02-22T03:07:44.563Z,980.88
2023-02-22T03:08:44.532Z,980.88
2023-02-22T03:09:44.756Z,980.87
2023-02-22T03:10:44.868Z,980.90
2023-02-22T03:11:44.507Z,980.89
2023-02-22T03:12:44.884Z,980.88
2023-02-22T03:13:44.879Z,980.82
2023-02-22T03:14:44.790Z,980.89
2023-02-22T03:15:44.438Z,980.90
2023-02-22T03:16:44.555Z,980.85
2023-02-22T03:17:44.403Z,980.88
2023-02-22T03:18:44.509Z,980.82
2023-02-22T03:19:44.381Z,980.88
2023-02-22T03:20:44.404Z,980.82
2023-02-22T03:21:44.352Z,980.88
2023-02-22T03:22:44.755Z,980.85
2023-02-22T03:23:44.340Z,980.83
2023-02-22T03:24:44.387Z,980.85
2023-02-22T03:25:44.318Z,980.83
2023-02-22T03:26:44.370Z,980.81
2023-02-22T03:27:44.291Z,980.79
2023-02-22T03:28:44.329Z,980.80
2023-02-22T03:29:44.261Z,980.80
2023-02-22T03:30:44.288Z,980.78
2023-02-22T03:31:44.727Z,980.88
2023-02-22T03:32:44.249Z,980.82
2023-02-22T03:33:44.231Z,980.82
2023-02-22T03:34:44.228Z,980.85
2023-02-22T03:35:44.223Z,980.92
2023-02-22T03:36:44.329Z,980.84
2023-02-22T03:37:44.181Z,980.89
2023-02-22T03:38:44.201Z,980.86
2023-02-22T03:39:44.198Z,980.86
2023-02-22T03:40:44.179Z,980.81
2023-02-22T03:41:44.181Z,980.85
2023-02-22T03:42:44.162Z,980.85
2023-02-22T03:43:44.139Z,980.83
2023-02-22T03:44:44.451Z,980.85
2023-02-22T03:45:44.095Z,980.84
2023-02-22T03:46:44.146Z,980.83
2023-02-22T03:47:44.088Z,980.85
2023-02-22T03:48:44.086Z,980.81
2023-02-22T03:49:44.038Z,980.81
2023-02-22T03:50:44.099Z,980.82
2023-02-22T03:51:44.029Z,980.79
2023-02-22T03:52:44.278Z,980.84
2023-02-22T03:53:44.050Z,980.79
2023-02-22T03:54:44.008Z,980.80
2023-02-22T03:55:43.976Z,980.81
2023-02-22T03:56:43.988Z,980.77
2023-02-22T03:57:43.979Z,980.80
2023-02-22T03:58:44.050Z,980.80
2023-02-22T03:59:43.931Z,980.84
2023-02-22T04:00:43.937Z,980.78
2023-02-22T04:01:43.925Z,980.84
2023-02-22T04:02:44.013Z,980.82
2023-02-22T04:03:44.016Z,980.82
2023-02-22T04:04:44.304Z,980.80
2023-02-22T04:05:43.856Z,980.84
2023-02-22T04:06:43.887Z,980.81
2023-02-22T04:07:43.849Z,980.81
2023-02-22T04:08:43.866Z,980.86
2023-02-22T04:09:43.824Z,980.84
2023-02-22T04:10:43.877Z,980.85
2023-02-22T04:11:43.802Z,980.83
2023-02-22T04:12:43.826Z,980.82
2023-02-22T04:13:43.785Z,980.85
2023-02-22T04:14:43.891Z,980.87
2023-02-22T04:15:43.841Z,980.83
2023-02-22T04:16:43.775Z,980.84
2023-02-22T04:17:43.745Z,980.80
2023-02-22T04:18:43.822Z,980.83
2023-02-22T04:19:43.735Z,980.81
2023-02-22T04:20:43.727Z,980.84
2023-02-22T04:21:43.724Z,980.78
2023-02-22T04:22:43.714Z,980.80
2023-02-22T04:23:43.675Z,980.78
2023-02-22T04:24:44.395Z,980.74
2023-02-22T04:25:43.679Z,980.78
2023-02-22T04:26:43.665Z,980.72
2023-02-22T04:27:43.627Z,980.71
2023-02-22T04:28:43.640Z,980.72
2023-02-22T04:29:43.624Z,980.67
2023-02-22T04:30:43.644Z,980.72
2023-02-22T04:31:43.570Z,980.66
2023-02-22T04:32:43.598Z,980.70
2023-02-22T04:33:43.554Z,980.63
2023-02-22T04:34:43.585Z,980.66
2023-02-22T04:35:43.535Z,980.65
2023-02-22T04:36:43.637Z,980.64
2023-02-22T04:37:43.821Z,980.65
2023-02-22T04:38:43.531Z,980.63
2023-02-22T04:39:43.577Z,980.64
2023-02-22T04:40:43.511Z,980.64
2023-02-22T04:41:43.481Z,980.60
2023-02-22T04:42:43.491Z,980.59
2023-02-22T04:43:43.500Z,980.58
2023-02-22T04:44:43.484Z,980.60
2023-02-22T04:45:43.497Z,980.52
2023-02-22T04:46:43.547Z,980.58
2023-02-22T04:47:43.404Z,980.60
2023-02-22T04:48:43.420Z,980.59
2023-02-22T04:49:43.399Z,980.58
2023-02-22T04:50:43.516Z,980.54
2023-02-22T04:51:43.377Z,980.57
2023-02-22T04:52:43.396Z,980.55
2023-02-22T04:53:43.534Z,980.56
2023-02-22T04:54:43.360Z,980.57
2023-02-22T04:55:43.329Z,980.63
2023-02-22T04:56:43.329Z,980.54
2023-02-22T04:57:43.315Z,980.55
2023-02-22T04:58:43.300Z,980.57
2023-02-22T04:59:43.279Z,980.54
2023-02-22T05:00:43.301Z,980.53
2023-02-22T05:01:43.269Z,980.53
2023-02-22T05:02:43.354Z,980.55
2023-02-22T05:03:43.231Z,980.55
2023-02-22T05:04:43.361Z,980.57
2023-02-22T05:05:43.315Z,980.54
2023-02-22T05:06:43.427Z,980.48
2023-02-22T05:07:43.192Z,980.48
2023-02-22T05:08:43.198Z,980.45
2023-02-22T05:09:43.541Z,980.46
2023-02-22T05:10:43.199Z,980.42
2023-02-22T05:11:43.159Z,980.44
2023-02-22T05:12:43.167Z,980.44
2023-02-22T05:13:43.148Z,980.42
2023-02-22T05:14:43.246Z,980.45
2023-02-22T05:15:43.135Z,980.40
2023-02-22T05:16:43.837Z,980.42
2023-02-22T05:17:43.385Z,980.50
2023-02-22T05:18:43.612Z,980.41
2023-02-22T05:19:43.047Z,980.38
2023-02-22T05:20:43.071Z,980.40
2023-02-22T05:21:43.085Z,980.38
2023-02-22T05:22:43.118Z,980.35
2023-02-22T05:23:43.068Z,980.40
2023-02-22T05:24:43.025Z,980.40
2023-02-22T05:25:42.988Z,980.39
2023-02-22T05:26:43.056Z,980.41
2023-02-22T05:27:42.978Z,980.37
2023-02-22T05:28:42.992Z,980.41
2023-02-22T05:29:42.932Z,980.35
2023-02-22T05:30:43.007Z,980.37
2023-02-22T05:31:43.035Z,980.38
2023-02-22T05:32:42.943Z,980.37
2023-02-22T05:33:42.922Z,980.33
2023-02-22T05:34:42.925Z,980.38
2023-02-22T05:35:42.884Z,980.36
2023-02-22T05:36:42.916Z,980.32
2023-02-22T05:37:42.945Z,980.36
2023-02-22T05:38:42.875Z,980.32
2023-02-22T05:39:42.834Z,980.38
2023-02-22T05:40:42.846Z,980.37
2023-02-22T05:41:42.980Z,980.34
2023-02-22T05:42:42.847Z,980.36
2023-02-22T05:43:42.986Z,980.35
2023-02-22T05:44:42.806Z,980.30
2023-02-22T05:45:42.797Z,980.34
2023-02-22T05:46:42.844Z,980.31
2023-02-22T05:47:42.992Z,980.31
2023-02-22T05:48:42.755Z,980.33
2023-02-22T05:49:42.802Z,980.34
2023-02-22T05:50:42.847Z,980.30
2023-02-22T05:51:42.714Z,980.30
2023-02-22T05:52:42.737Z,980.27
2023-02-22T05:53:42.708Z,980.22
2023-02-22T05:54:42.736Z,980.24
2023-02-22T05:55:43.357Z,980.25
2023-02-22T05:56:42.713Z,980.21
2023-02-22T05:57:42.662Z,980.20
2023-02-22T05:58:42.675Z,980.22
2023-02-22T05:59:42.754Z,980.20
2023-02-22T06:00:42.637Z,980.18
2023-02-22T06:01:42.606Z,980.22
2023-02-22T06:02:42.623Z,980.22
2023-02-22T06:03:42.634Z,980.21
2023-02-22T06:04:42.579Z,980.23
2023-02-22T06:05:42.632Z,980.21
2023-02-22T06:06:42.637Z,980.25
2023-02-22T06:07:42.550Z,980.23
2023-02-22T06:08:42.621Z,980.27
2023-02-22T06:09:42.513Z,980.25
2023-02-22T06:10:42.508Z,980.23
2023-02-22T06:11:42.535Z,980.29
2023-02-22T06:12:42.656Z,980.26
2023-02-22T06:13:42.665Z,980.27
2023-02-22T06:14:42.465Z,980.28
2023-02-22T06:15:42.465Z,980.25
2023-02-22T06:16:42.427Z,980.22
2023-02-22T06:17:42.444Z,980.27
2023-02-22T06:18:42.436Z,980.25
2023-02-22T06:19:42.425Z,980.28
2023-02-22T06:20:42.407Z,980.29
2023-02-22T06:21:42.397Z,980.27
2023-02-22T06:22:42.398Z,980.26
2023-02-22T06:23:42.428Z,980.29
2023-02-22T06:24:42.335Z,980.26
2023-02-22T06:25:42.352Z,980.24
2023-02-22T06:26:42.335Z,980.26
2023-02-22T06:27:42.670Z,980.21
2023-02-22T06:28:42.682Z,980.26
2023-02-22T06:29:42.309Z,980.28
2023-02-22T06:30:42.317Z,980.27
2023-02-22T06:31:42.388Z,980.29
2023-02-22T06:32:42.270Z,980.30
2023-02-22T06:33:42.612Z,980.27
2023-02-22T06:34:42.229Z,980.29
2023-02-22T06:35:42.277Z,980.29
2023-02-22T06:36:42.216Z,980.30
2023-02-22T06:37:42.213Z,980.26
2023-02-22T06:38:42.519Z,980.30
2023-02-22T06:39:42.212Z,980.31
2023-02-22T06:40:42.181Z,980.33
2023-02-22T06:41:42.183Z,980.32
2023-02-22T06:42:42.149Z,980.30
2023-02-22T06:43:42.160Z,980.30
2023-02-22T06:44:42.125Z,980.31
2023-02-22T06:45:42.176Z,980.32
2023-02-22T06:46:42.102Z,980.32
2023-02-22T06:47:42.406Z,980.30
2023-02-22T06:48:42.084Z,980.31
2023-02-22T06:49:42.399Z,980.34
2023-02-22T06:50:42.080Z,980.28
2023-02-22T06:51:42.076Z,980.34
2023-02-22T06:52:42.064Z,980.24
2023-02-22T06:53:42.052Z,980.28
2023-02-22T06:54:42.020Z,980.27
2023-02-22T06:55:42.242Z,980.25
2023-02-22T06:56:41.993Z,980.26
2023-02-22T06:57:42.000Z,980.23
2023-02-22T06:58:41.974Z,980.27
2023-02-22T06:59:41.976Z,980.24
2023-02-22T07:00:41.996Z,980.25
2023-02-22T07:01:42.000Z,980.26
2023-02-22T07:02:41.919Z,980.24
2023-02-22T07:03:41.982Z,980.27
2023-02-22T07:04:43.553Z,980.26
2023-02-22T07:05:42.222Z,980.25
2023-02-22T07:06:42.305Z,980.28
2023-02-22T07:07:42.706Z,980.20
2023-02-22T07:08:42.009Z,980.24
2023-02-22T07:09:42.191Z,980.26
2023-02-22T07:10:41.849Z,980.21
2023-02-22T07:11:41.869Z,980.24
2023-02-22T07:12:41.821Z,980.24
2023-02-22T07:13:41.846Z,980.26
2023-02-22T07:14:41.802Z,980.28
2023-02-22T07:15:41.803Z,980.25
2023-02-22T07:16:41.867Z,980.26
2023-02-22T07:17:41.780Z,980.29
2023-02-22T07:18:41.764Z,980.28
2023-02-22T07:19:41.793Z,980.25
2023-02-22T07:20:41.739Z,980.30
2023-02-22T07:21:41.761Z,980.27
2023-02-22T07:22:41.720Z,980.26
2023-02-22T07:23:41.837Z,980.25
2023-02-22T07:24:41.694Z,980.22
2023-02-22T07:25:41.693Z,980.25
2023-02-22T07:26:41.717Z,980.25
2023-02-22T07:27:41.677Z,980.23
2023-02-22T07:28:41.734Z,980.23
2023-02-22T07:29:41.752Z,980.24
2023-02-22T07:30:41.808Z,980.23
2023-02-22T07:31:41.649Z,980.22
2023-02-22T07:32:41.697Z,980.24
2023-02-22T07:33:41.612Z,980.24
2023-02-22T07:34:41.610Z,980.21
2023-02-22T07:35:41.602Z,980.23
2023-02-22T07:36:41.584Z,980.19
2023-02-22T07:37:41.575Z,980.20
2023-02-22T07:38:41.615Z,980.17
2023-02-22T07:39:41.723Z,980.17
2023-02-22T07:40:41.520Z,980.19
2023-02-22T07:41:41.534Z,980.19
2023-02-22T07:42:41.480Z,980.22
2023-02-22T07:43:41.533Z,980.22
2023-02-22T07:44:41.649Z,980.22
2023-02-22T07:45:41.641Z,980.18
2023-02-22T07:46:41.448Z,980.20
2023-02-22T07:47:41.602Z,980.21
2023-02-22T07:48:41.572Z,980.17
2023-02-22T07:49:41.689Z,980.18
2023-02-22T07:50:41.689Z,980.14
2023-02-22T07:51:41.971Z,980.17
2023-02-22T07:52:41.413Z,980.16
2023-02-22T07:53:41.389Z,980.17
2023-02-22T07:54:56.297Z,980.12
2023-02-22T07:55:41.841Z,980.09
2023-02-22T07:56:41.344Z,980.12
2023-02-22T07:57:41.351Z,980.11
2023-02-22T07:58:41.314Z,980.07
2023-02-22T07:59:41.353Z,980.10
2023-02-22T08:00:41.339Z,980.07
2023-02-22T08:01:41.312Z,980.08
2023-02-22T08:02:41.322Z,980.05
2023-02-22T08:03:41.351Z,980.05
2023-02-22T08:04:41.251Z,980.02
2023-02-22T08:05:41.289Z,980.07
2023-02-22T08:06:41.262Z,980.07
2023-02-22T08:07:41.237Z,980.06
2023-02-22T08:08:41.197Z,980.09
2023-02-22T08:09:41.238Z,980.03
2023-02-22T08:10:41.312Z,980.02
2023-02-22T08:11:41.301Z,980.02
2023-02-22T08:12:41.163Z,980.03
2023-02-22T08:13:41.251Z,980.02
2023-02-22T08:14:41.144Z,979.98
2023-02-22T08:15:41.153Z,980.00
2023-02-22T08:16:41.167Z,979.97
2023-02-22T08:17:41.137Z,979.98
2023-02-22T08:18:41.087Z,979.95
2023-02-22T08:19:41.125Z,979.94
2023-02-22T08:20:41.122Z,979.89
2023-02-22T08:21:41.089Z,979.90
2023-02-22T08:22:41.046Z,979.91
2023-02-22T08:23:41.185Z,979.91
2023-02-22T08:24:41.056Z,979.94
2023-02-22T08:25:41.067Z,979.93
2023-02-22T08:26:41.007Z,979.93
2023-02-22T08:27:41.056Z,979.88
2023-02-22T08:28:41.009Z,979.92
2023-02-22T08:29:41.013Z,979.88
2023-02-22T08:30:41.023Z,979.88
2023-02-22T08:31:41.018Z,979.93
2023-02-22T08:32:40.957Z,979.90
2023-02-22T08:33:41.043Z,979.89
2023-02-22T08:34:40.943Z,979.88
2023-02-22T08:35:40.972Z,979.91
2023-02-22T08:36:40.905Z,979.90
2023-02-22T08:37:40.908Z,979.87
2023-02-22T08:38:40.926Z,979.84
2023-02-22T08:39:40.967Z,979.79
2023-02-22T08:40:40.864Z,979.80
2023-02-22T08:41:40.855Z,979.85
2023-02-22T08:42:40.849Z,979.78
2023-02-22T08:43:40.859Z,979.80
2023-02-22T08:44:40.816Z,979.78
2023-02-22T08:45:40.922Z,979.75
2023-02-22T08:46:40.781Z,979.77
2023-02-22T08:47:40.825Z,979.79
2023-02-22T08:48:40.763Z,979.76
2023-02-22T08:49:40.781Z,979.73
2023-02-22T08:50:40.785Z,979.69
2023-02-22T08:51:40.754Z,979.67
2023-02-22T08:52:40.766Z,979.68
2023-02-22T08:53:40.792Z,979.68
2023-02-22T08:54:40.695Z,979.67
2023-02-22T08:55:40.721Z,979.69
2023-02-22T08:56:40.688Z,979.72
2023-02-22T08:57:40.688Z,979.73
2023-02-22T08:58:40.639Z,979.69
2023-02-22T08:59:40.650Z,979.68
2023-02-22T09:00:40.632Z,979.67
2023-02-22T09:01:40.659Z,979.68
2023-02-22T09:02:40.633Z,979.67
2023-02-22T09:03:40.673Z,979.67
2023-02-22T09:04:40.580Z,979.68
2023-02-22T09:05:40.673Z,979.63
2023-02-22T09:06:40.579Z,979.63
2023-02-22T09:07:40.586Z,979.60
2023-02-22T09:08:40.533Z,979.64
2023-02-22T09:09:40.561Z,979.64
2023-02-22T09:10:40.642Z,979.57
2023-02-22T09:11:40.516Z,979.61
2023-02-22T09:12:40.494Z,979.62
2023-02-22T09:13:40.502Z,979.60
2023-02-22T09:14:40.457Z,979.59
2023-02-22T09:15:40.484Z,979.60
2023-02-22T09:16:40.505Z,979.58
2023-02-22T09:17:40.470Z,979.59
2023-02-22T09:18:44.199Z,979.57
2023-02-22T09:19:40.441Z,979.57
2023-02-22T09:20:40.385Z,979.59
2023-02-22T09:21:40.406Z,979.57
2023-02-22T09:22:40.396Z,979.52
2023-02-22T09:23:40.400Z,979.48
2023-02-22T09:24:40.349Z,979.47
2023-02-22T09:25:40.380Z,979.49
2023-02-22T09:26:40.367Z,979.51
2023-02-22T09:27:40.350Z,979.53
2023-02-22T09:28:40.309Z,979.53
2023-02-22T09:29:40.320Z,979.49
2023-02-22T09:30:40.313Z,979.53
2023-02-22T09:31:41.101Z,979.51
2023-02-22T09:32:40.484Z,979.54
2023-02-22T09:33:40.271Z,979.46
2023-02-22T09:34:40.246Z,979.47
2023-02-22T09:35:40.263Z,979.43
2023-02-22T09:36:40.228Z,979.45
2023-02-22T09:37:40.250Z,979.43
2023-02-22T09:38:40.203Z,979.41
2023-02-22T09:39:40.228Z,979.43
2023-02-22T09:40:40.183Z,979.37
2023-02-22T09:41:40.205Z,979.35
2023-02-22T09:42:40.412Z,979.34
2023-02-22T09:43:40.186Z,979.34
2023-02-22T09:44:40.138Z,979.30
2023-02-22T09:45:40.179Z,979.28
2023-02-22T09:46:40.104Z,979.27
2023-02-22T09:47:40.167Z,979.29
2023-02-22T09:48:40.084Z,979.26
2023-02-22T09:49:40.136Z,979.27
2023-02-22T09:50:40.057Z,979.27
2023-02-22T09:51:40.188Z,979.19
2023-02-22T09:52:40.189Z,979.24
2023-02-22T09:53:40.044Z,979.17
2023-02-22T09:54:40.022Z,979.22
2023-02-22T09:55:40.038Z,979.24
2023-02-22T09:56:39.985Z,979.18
2023-02-22T09:57:40.023Z,979.22
2023-02-22T09:58:41.812Z,979.23
2023-02-22T09:59:39.984Z,979.23
2023-02-22T10:00:39.944Z,979.27
2023-02-22T10:01:39.993Z,979.23
2023-02-22T10:02:39.926Z,979.19
2023-02-22T10:03:39.956Z,979.20
2023-02-22T10:04:39.908Z,979.17
2023-02-22T10:05:40.040Z,979.13
2023-02-22T10:06:39.894Z,979.13
2023-02-22T10:07:40.289Z,979.13
2023-02-22T10:08:39.863Z,979.09
2023-02-22T10:09:39.864Z,979.11
2023-02-22T10:10:39.864Z,979.07
2023-02-22T10:11:39.834Z,979.06
2023-02-22T10:12:39.838Z,979.03
2023-02-22T10:13:39.920Z,979.04
2023-02-22T10:14:39.829Z,979.03
2023-02-22T10:15:39.813Z,979.00
2023-02-22T10:16:39.793Z,979.02
2023-02-22T10:17:39.774Z,978.99
2023-02-22T10:18:39.768Z,979.00
2023-02-22T10:19:39.754Z,978.96
2023-02-22T10:20:39.715Z,978.92
2023-02-22T10:21:39.737Z,978.94
2023-02-22T10:22:39.715Z,978.91
2023-02-22T10:23:39.703Z,978.91
2023-02-22T10:24:39.747Z,978.91
2023-02-22T10:25:39.692Z,978.91
2023-02-22T10:26:39.671Z,978.90
2023-02-22T10:27:39.692Z,978.87
2023-02-22T10:28:39.626Z,978.89
2023-02-22T10:29:39.630Z,978.86
2023-02-22T10:30:39.656Z,978.93
2023-02-22T10:31:39.639Z,978.86
2023-02-22T10:32:39.873Z,978.87
2023-02-22T10:33:39.578Z,978.86
2023-02-22T10:34:39.592Z,978.83
2023-02-22T10:35:39.560Z,978.87
2023-02-22T10:36:39.611Z,978.83
2023-02-22T10:37:39.652Z,978.80
2023-02-22T10:38:39.549Z,978.81
2023-02-22T10:39:39.535Z,978.83
2023-02-22T10:40:39.552Z,978.82
2023-02-22T10:41:39.491Z,978.81
2023-02-22T10:42:39.519Z,978.81
2023-02-22T10:43:39.524Z,978.81
2023-02-22T10:44:39.494Z,978.81
2023-02-22T10:45:39.457Z,978.73
2023-02-22T10:46:39.460Z,978.74
2023-02-22T10:47:39.423Z,978.77
2023-02-22T10:48:39.453Z,978.76
2023-02-22T10:49:39.413Z,978.71
2023-02-22T10:50:39.420Z,978.71
2023-02-22T10:51:39.452Z,978.70
2023-02-22T10:52:39.571Z,978.74
2023-02-22T10:53:39.507Z,978.69
2023-02-22T10:54:39.400Z,978.71
2023-02-22T10:55:39.361Z,978.71
2023-02-22T10:56:39.380Z,978.65
2023-02-22T10:57:39.325Z,978.66
2023-02-22T10:58:39.359Z,978.63
2023-02-22T10:59:39.309Z,978.66
2023-02-22T11:00:39.330Z,978.61
2023-02-22T11:01:39.325Z,978.67
2023-02-22T11:02:39.300Z,978.62
2023-02-22T11:03:39.252Z,978.65
2023-02-22T11:04:39.291Z,978.67
2023-02-22T11:05:39.233Z,978.65
2023-02-22T11:06:39.238Z,978.60
2023-02-22T11:07:39.240Z,978.65
2023-02-22T11:08:39.243Z,978.59
2023-02-22T11:09:39.199Z,978.58
2023-02-22T11:10:39.224Z,978.55
2023-02-22T11:11:39.237Z,978.59
2023-02-22T11:12:39.235Z,978.56
2023-02-22T11:13:39.234Z,978.54
2023-02-22T11:14:39.181Z,978.55
2023-02-22T11:15:39.140Z,978.56
2023-02-22T11:16:39.551Z,978.57
2023-02-22T11:17:39.089Z,978.54
2023-02-22T11:18:39.107Z,978.52
2023-02-22T11:19:39.090Z,978.49
2023-02-22T11:20:39.117Z,978.49
2023-02-22T11:21:39.043Z,978.54
2023-02-22T11:22:39.064Z,978.49
2023-02-22T11:23:39.030Z,978.48
2023-02-22T11:24:48.760Z,978.51
2023-02-22T11:25:40.022Z,978.44
2023-02-22T11:26:39.070Z,978.43
2023-02-22T11:27:38.967Z,978.41
2023-02-22T11:28:38.978Z,978.39
2023-02-22T11:29:38.980Z,978.38
2023-02-22T11:30:39.128Z,978.39
2023-02-22T11:31:39.075Z,978.38
2023-02-22T11:32:38.949Z,978.38
2023-02-22T11:33:38.907Z,978.38
2023-02-22T11:34:39.258Z,978.34
2023-02-22T11:35:39.076Z,978.36
2023-02-22T11:36:38.899Z,978.37
2023-02-22T11:37:38.887Z,978.33
2023-02-22T11:38:38.871Z,978.35
2023-02-22T11:39:38.867Z,978.30
2023-02-22T11:40:38.860Z,978.33
2023-02-22T11:41:38.815Z,978.32
2023-02-22T11:42:38.839Z,978.32
2023-02-22T11:43:38.813Z,978.29
2023-02-22T11:44:38.802Z,978.30
2023-02-22T11:45:44.209Z,978.30
2023-02-22T11:46:39.801Z,978.28
2023-02-22T11:47:38.734Z,978.27
2023-02-22T11:48:38.754Z,978.23
2023-02-22T11:49:38.716Z,978.24
2023-02-22T11:50:38.734Z,978.21
2023-02-22T11:51:38.703Z,978.23
2023-02-22T11:52:38.705Z,978.24
2023-02-22T11:53:38.699Z,978.31
2023-02-22T11:54:38.819Z,978.28
2023-02-22T11:55:43.148Z,978.27
2023-02-22T11:56:38.726Z,978.26
2023-02-22T11:57:38.638Z,978.28
2023-02-22T11:58:38.644Z,978.24
2023-02-22T11:59:38.614Z,978.24
2023-02-22T12:00:38.625Z,978.20
2023-02-22T12:01:38.597Z,978.19
2023-02-22T12:02:41.647Z,978.18
2023-02-22T12:03:39.672Z,978.17
2023-02-22T12:04:39.529Z,978.19
2023-02-22T12:05:38.547Z,978.21
2023-02-22T12:06:38.566Z,978.19
2023-02-22T12:07:38.553Z,978.19
2023-02-22T12:08:38.577Z,978.20
2023-02-22T12:09:38.485Z,978.15
2023-02-22T12:10:38.505Z,978.18
2023-02-22T12:11:38.505Z,978.11
2023-02-22T12:12:38.557Z,978.13
2023-02-22T12:13:38.451Z,978.12
2023-02-22T12:14:38.473Z,978.18
2023-02-22T12:15:38.542Z,978.10
2023-02-22T12:16:38.440Z,978.10
2023-02-22T12:17:40.202Z,978.08
2023-02-22T12:18:38.426Z,978.07
2023-02-22T12:19:38.646Z,978.07
2023-02-22T12:20:38.382Z,978.04
2023-02-22T12:21:38.418Z,978.00
2023-02-22T12:22:38.364Z,978.03
2023-02-22T12:23:38.332Z,978.03
2023-02-22T12:24:38.418Z,977.95
2023-02-22T12:25:38.314Z,978.01
2023-02-22T12:26:38.697Z,978.04
2023-02-22T12:27:38.297Z,978.04
2023-02-22T12:28:38.351Z,977.96